< Cyclone 200304 2003 Season Cyclone 200306 >
Cyclone 200305 (ERICA)
General InformationTrack Information on Google MapsDetailed Wind InformationList of All Images || ResourceGoogle EarthGE AnimationAtom FeedGeoJSON
Detalied Best Track (Time Zone = UTC)
Year Month Day Hour Lat. Long. Pressure (hPa) Wind (kt) Class Image Chart
2003 3 1 12 -20.9 147.5 999 33 2 Image --
2003 3 1 18 -20.4 149.0 998 33 2 Image --
2003 3 2 00 -20.2 149.4 1001 30 2 Image --
2003 3 2 06 -19.9 149.8 1000 30 2 Image --
2003 3 2 12 -19.9 150.0 1002 30 2 Image --
2003 3 2 18 -19.6 149.7 1001 40 3 Image --
2003 3 3 00 -19.4 149.5 1003 33 2 Image --
2003 3 3 06 -19.6 151.0 1001 35 3 Image --
2003 3 3 12 -20.2 151.5 1000 40 3 Image --
2003 3 3 18 -20.2 152.2 998 45 3 Image --
2003 3 4 00 -20.4 153.0 997 45 3 Image --
2003 3 4 06 -20.4 154.0 995 45 3 Image --
2003 3 4 12 -20.5 154.4 990 50 4 Image --
2003 3 4 18 -20.4 154.6 985 55 4 Image --
2003 3 5 00 -20.0 154.9 985 50 4 Image --
2003 3 5 06 -19.3 155.1 985 50 4 Image --
2003 3 5 12 -18.6 155.1 988 50 4 Image --
2003 3 5 18 -17.9 155.1 990 45 3 Image --
2003 3 6 00 -17.4 154.5 990 45 3 Image --
2003 3 6 06 -16.7 154.0 990 45 3 Image --
2003 3 6 12 -15.9 154.0 992 40 3 Image --
2003 3 6 18 -15.4 153.9 995 35 3 Image --
2003 3 7 00 -15.0 153.9 998 30 2 Image --
2003 3 7 06 -14.4 153.7 998 30 2 Image --
2003 3 7 12 -13.7 153.5 998 33 2 Image --
2003 3 7 18 -12.7 154.2 997 40 3 Image --
2003 3 8 00 -12.6 154.0 998 40 3 Image --
2003 3 8 06 -12.4 154.4 998 35 3 Image --
2003 3 8 12 -12.4 154.6 999 33 2 Image --
2003 3 8 18 -12.1 154.8 999 33 2 Image --
2003 3 9 00 -12.1 154.9 999 33 2 Image --
2003 3 9 06 -12.3 155.3 999 33 2 Image --
2003 3 9 12 -12.2 155.9 1000 30 2 Image --
2003 3 9 18 -12.1 156.8 1000 27 2 Image --
2003 3 10 00 -11.9 157.5 1000 30 2 Image --
2003 3 10 06 -12.0 157.9 995 45 3 Image --
2003 3 10 12 -12.2 158.2 993 45 3 Image --
2003 3 10 18 -12.6 158.3 990 50 4 Image --
2003 3 11 00 -13.0 158.4 985 55 4 Image --
2003 3 11 06 -13.5 158.8 980 60 4 Image --
2003 3 11 12 -14.3 159.4 975 60 4 Image --
2003 3 11 18 -15.1 159.8 970 65 5 Image --
2003 3 12 00 -16.3 159.7 965 70 5 Image --
2003 3 12 06 -16.8 160.0 960 80 5 Image --
< Cyclone 200304 2003 Season Cyclone 200306 >

Help